AirNav   Bose ProFlight Series 2 Headset
 
 1123 users online  

45NH Hayes Heliport
Raymond, New Hampshire, USA

GOING TO RAYMOND?


FAA INFORMATION EFFECTIVE 02 JANUARY 2020

Location

FAA Identifier: 45NH
Lat/Long: 42-59-06.6000N 071-10-41.8200W
42-59.110000N 071-10.697000W
42.9851667,-71.1782833
(estimated)
Elevation: 152 ft. / 46 m (estimated)
From city: 5 miles SW of RAYMOND, NH
Time zone: UTC -5 (UTC -4 during Daylight Saving Time)
Zip code: 03036

Heliport Operations

Heliport use: Private use. Permission required prior to landing
Activation date: 05/2005
Control tower: no
ARTCC: BOSTON CENTER
FSS: BANGOR FLIGHT SERVICE STATION
Attendance: UNATNDD
Segmented circle: no

Heliport Communications

WX ASOS at MHT (12 nm W): 119.55 (603-621-1766)
WX ASOS at LWM (16 nm S): PHONE 978-687-8017
WX AWOS-3PT at ASH (19 nm SW): 125.1 (603-578-0473)
WX ASOS at CON (19 nm NW): 132.325 (603-224-6558)

Nearby radio navigation aids

VOR radial/distance  VOR name  Freq  Var
MHTr065/10.9MANCHESTER VOR/DME114.4015W
LWMr001/15.1LAWRENCE VOR/DME112.5015W
PSMr265/16.3PEASE VOR/DME116.5016W
CONr144/22.4CONCORD VOR/DME112.9015W
ENEr240/36.2KENNEBUNK VOR/DME117.1017W
BOSr004/38.6BOSTON VOR/DME112.7016W

 
NDB name  Hdg/Dist  Freq  Var  ID
EPSOM140/14.421616WCO -.-. ---
ROLLINS243/20.826016WESG . ... --.

Heliport Services

Runway Information

Helipad H1

Dimensions: 35 x 35 ft. / 11 x 11 m
Surface: turf
Operational restrictions: CIRCULAR HELIPAD.
Traffic pattern: leftleft

Heliport Ownership and Management from official FAA records

Ownership: Privately-owned
Owner: FRANK HAYES
76 CHESTER RD
RAYMOND, NH 03077
Phone 603-315-4628
Manager: FRANK HAYES
76 CHESTER RD
RAYMOND, NH 03077
Phone 603-315-4628

Additional Remarks

FOR CD CTC BOSTON APCH AT 603-594-5551.

Instrument Procedures

There are no published instrument procedures at 45NH.

Some nearby airports with instrument procedures:

KMHT - Manchester Airport (12 nm W)
KLWM - Lawrence Municipal Airport (16 nm S)
KPSM - Portsmouth International Airport at Pease (17 nm E)
KASH - Boire Field Airport (19 nm SW)
KCON - Concord Municipal Airport (19 nm NW)
 
Loc | Ops | Rwys | IFR | FBO | Links
Com | Nav | Svcs | Stats | Notes
Area around 45NH (Hayes Heliport)
 
Road maps at: MapQuest Bing Google
 
Aerial photo
No photo
 
Sectional chart

 
Airport distance calculator
Flying to Hayes Heliport? Find the distance to fly.

From to 45NH

Sunrise and sunset
Times for 26-Jan-2020
 Local
(UTC-5)
 Zulu
(UTC)
Morning civil twilight06:3611:36
Sunrise07:0712:07
Sunset16:4821:48
Evening civil twilight17:1922:19

Current date and time
Zulu (UTC)  27-Jan-2020 01:12:12
Local (UTC-5)  26-Jan-2020 20:12:12
 
METAR
KMHT 
12nm W 
270053Z 23004KT 10SM FEW050 03/M03 A2964 RMK AO2 SLP055 T00281033
KLWM 
16nm S 
270054Z 23009KT 10SM CLR 03/M03 A2968 RMK AO2 SLP053 T00281028 $
KPSM 
17nm E 
270056Z 24006KT 10SM CLR 03/M04 A2963 RMK AO2A SLP037 T00291039
KCON 
19nm NW 
270051Z AUTO 17004KT 10SM CLR 00/M04 A2964 RMK AO2 SLP042 T00001039
KASH 
20nm SW 
270056Z VRB03KT 10SM SCT044 02/M02 A2967 RMK AO2 SLP054 T00221017
KDAW 
21nm NE 
270051Z AUTO 00000KT 10SM CLR 02/M04 A2963 RMK AO2 SLP033 T00171039
TAF
KMHT 
12nm W 
261720Z 2618/2718 28010KT P6SM FEW030 FM270200 22003KT P6SM BKN100
KPSM 
17nm E 
261720Z 2618/2718 27010KT P6SM BKN025 FM261830 27010KT P6SM SCT030 FM270000 25006KT P6SM BKN100
KCON 
19nm NW 
261720Z 2618/2718 28010KT P6SM SCT030 FM270200 23003KT P6SM BKN100
NOTAMs
Click for the latest NOTAMs
NOTAMs are issued by the DoD/FAA and will open in a separate window not controlled by AirNav.

 

 
 

Would you like to see your business listed on this page?

 If your business provides an interesting product or service to pilots, flight crews, aircraft, or users of the Hayes Heliport, you should consider listing it here.  To start the listing process, click on the button below
 
Add a business
 

Other Pages about Hayes Heliport

Update a link
 
Copyright © AirNav, LLC. All rights reserved. Privacy Policy  Contact